sensor_id;sensor_type;location;lat;lon;timestamp;pressure;altitude;pressure_sealevel;temperature;humidity
62632;BME280;48703;51.248;-0.546;2023-06-01T00:01:48;101920;;;12.61;72.96
62632;BME280;48703;51.248;-0.546;2023-06-01T00:04:50;101919;;;12.58;72.96
62632;BME280;48703;51.248;-0.546;2023-06-01T00:07:52;101919;;;12.57;73.55
62632;BME280;48703;51.248;-0.546;2023-06-01T00:10:54;101921;;;12.54;73.47
62632;BME280;48703;51.248;-0.546;2023-06-01T00:13:56;101922;;;12.51;73.73
62632;BME280;48703;51.248;-0.546;2023-06-01T00:16:58;101920;;;12.47;73.85
62632;BME280;48703;51.248;-0.546;2023-06-01T00:19:59;101912;;;12.46;73.89
62632;BME280;48703;51.248;-0.546;2023-06-01T00:23:01;101909;;;12.45;73.87
62632;BME280;48703;51.248;-0.546;2023-06-01T00:26:03;101907;;;12.46;74.01
62632;BME280;48703;51.248;-0.546;2023-06-01T00:29:05;101900;;;12.43;74.44
62632;BME280;48703;51.248;-0.546;2023-06-01T00:32:07;101902;;;12.39;74.02
62632;BME280;48703;51.248;-0.546;2023-06-01T00:35:09;101903;;;12.37;73.96
62632;BME280;48703;51.248;-0.546;2023-06-01T00:38:11;101898;;;12.35;73.97
62632;BME280;48703;51.248;-0.546;2023-06-01T00:41:12;101891;;;12.30;74.45
62632;BME280;48703;51.248;-0.546;2023-06-01T00:44:14;101883;;;12.27;74.41
62632;BME280;48703;51.248;-0.546;2023-06-01T00:47:16;101875;;;12.26;74.51
62632;BME280;48703;51.248;-0.546;2023-06-01T00:50:18;101877;;;12.22;74.64
62632;BME280;48703;51.248;-0.546;2023-06-01T00:53:20;101881;;;12.18;74.57
62632;BME280;48703;51.248;-0.546;2023-06-01T00:56:22;101885;;;12.15;74.54
62632;BME280;48703;51.248;-0.546;2023-06-01T00:59:24;101883;;;12.07;74.69
62632;BME280;48703;51.248;-0.546;2023-06-01T01:02:25;101883;;;12.03;74.78
62632;BME280;48703;51.248;-0.546;2023-06-01T01:05:27;101881;;;12.03;74.96
62632;BME280;48703;51.248;-0.546;2023-06-01T01:08:31;101889;;;12.02;74.78
62632;BME280;48703;51.248;-0.546;2023-06-01T01:11:31;101891;;;12.00;74.61
62632;BME280;48703;51.248;-0.546;2023-06-01T01:14:34;101893;;;11.96;74.82
62632;BME280;48703;51.248;-0.546;2023-06-01T01:17:36;101893;;;11.94;75.22
62632;BME280;48703;51.248;-0.546;2023-06-01T01:20:37;101889;;;11.89;75.38
62632;BME280;48703;51.248;-0.546;2023-06-01T01:23:43;101886;;;11.84;75.57
62632;BME280;48703;51.248;-0.546;2023-06-01T01:26:42;101887;;;11.82;75.69
62632;BME280;48703;51.248;-0.546;2023-06-01T01:29:42;101894;;;11.77;76.03
62632;BME280;48703;51.248;-0.546;2023-06-01T01:32:44;101897;;;11.74;76.39
62632;BME280;48703;51.248;-0.546;2023-06-01T01:35:46;101898;;;11.73;76.24
62632;BME280;48703;51.248;-0.546;2023-06-01T01:38:48;101899;;;11.74;76.03
62632;BME280;48703;51.248;-0.546;2023-06-01T01:41:50;101899;;;11.72;76.23
62632;BME280;48703;51.248;-0.546;2023-06-01T01:44:52;101902;;;11.64;76.55
62632;BME280;48703;51.248;-0.546;2023-06-01T01:47:54;101903;;;11.60;76.68
62632;BME280;48703;51.248;-0.546;2023-06-01T01:50:56;101899;;;11.56;76.85
62632;BME280;48703;51.248;-0.546;2023-06-01T01:53:57;101898;;;11.53;77.28
62632;BME280;48703;51.248;-0.546;2023-06-01T01:56:59;101898;;;11.53;76.86
62632;BME280;48703;51.248;-0.546;2023-06-01T02:00:01;101896;;;11.51;77.21
62632;BME280;48703;51.248;-0.546;2023-06-01T02:03:03;101894;;;11.47;77.25
62632;BME280;48703;51.248;-0.546;2023-06-01T02:06:05;101893;;;11.45;77.25
62632;BME280;48703;51.248;-0.546;2023-06-01T02:09:07;101894;;;11.41;77.42
62632;BME280;48703;51.248;-0.546;2023-06-01T02:12:09;101896;;;11.39;77.46
62632;BME280;48703;51.248;-0.546;2023-06-01T02:15:10;101892;;;11.37;76.82
62632;BME280;48703;51.248;-0.546;2023-06-01T02:18:12;101890;;;11.36;77.12
62632;BME280;48703;51.248;-0.546;2023-06-01T02:21:14;101888;;;11.33;77.21
62632;BME280;48703;51.248;-0.546;2023-06-01T02:24:16;101889;;;11.32;77.27
62632;BME280;48703;51.248;-0.546;2023-06-01T02:27:18;101889;;;11.33;77.41
62632;BME280;48703;51.248;-0.546;2023-06-01T02:30:20;101891;;;11.33;77.60
62632;BME280;48703;51.248;-0.546;2023-06-01T02:33:22;101886;;;11.30;77.47
62632;BME280;48703;51.248;-0.546;2023-06-01T02:36:23;101882;;;11.27;77.71
62632;BME280;48703;51.248;-0.546;2023-06-01T02:39:25;101882;;;11.26;77.60
62632;BME280;48703;51.248;-0.546;2023-06-01T02:42:27;101883;;;11.26;77.54
62632;BME280;48703;51.248;-0.546;2023-06-01T02:45:29;101883;;;11.27;77.36
62632;BME280;48703;51.248;-0.546;2023-06-01T02:48:31;101883;;;11.27;77.33
62632;BME280;48703;51.248;-0.546;2023-06-01T02:51:33;101881;;;11.25;77.37
62632;BME280;48703;51.248;-0.546;2023-06-01T02:54:35;101879;;;11.22;77.65
62632;BME280;48703;51.248;-0.546;2023-06-01T02:57:36;101880;;;11.20;77.98
62632;BME280;48703;51.248;-0.546;2023-06-01T03:00:38;101882;;;11.20;77.95
62632;BME280;48703;51.248;-0.546;2023-06-01T03:03:41;101884;;;11.19;78.24
62632;BME280;48703;51.248;-0.546;2023-06-01T03:06:42;101885;;;11.20;78.41
62632;BME280;48703;51.248;-0.546;2023-06-01T03:09:44;101881;;;11.20;78.31
62632;BME280;48703;51.248;-0.546;2023-06-01T03:12:46;101881;;;11.19;78.33
62632;BME280;48703;51.248;-0.546;2023-06-01T03:15:48;101880;;;11.17;78.54
62632;BME280;48703;51.248;-0.546;2023-06-01T03:18:49;101878;;;11.14;78.16
62632;BME280;48703;51.248;-0.546;2023-06-01T03:21:51;101881;;;11.12;78.16
62632;BME280;48703;51.248;-0.546;2023-06-01T03:24:53;101883;;;11.08;78.19
62632;BME280;48703;51.248;-0.546;2023-06-01T03:27:55;101881;;;11.05;78.11
62632;BME280;48703;51.248;-0.546;2023-06-01T03:30:57;101884;;;11.02;78.32
62632;BME280;48703;51.248;-0.546;2023-06-01T03:33:59;101883;;;10.98;78.47
62632;BME280;48703;51.248;-0.546;2023-06-01T03:37:01;101884;;;10.93;78.89
62632;BME280;48703;51.248;-0.546;2023-06-01T03:40:03;101884;;;10.90;78.89
62632;BME280;48703;51.248;-0.546;2023-06-01T03:43:04;101885;;;10.87;78.62
62632;BME280;48703;51.248;-0.546;2023-06-01T03:46:06;101880;;;10.83;78.45
62632;BME280;48703;51.248;-0.546;2023-06-01T03:49:08;101877;;;10.84;78.42
62632;BME280;48703;51.248;-0.546;2023-06-01T03:52:10;101877;;;10.84;78.82
62632;BME280;48703;51.248;-0.546;2023-06-01T03:55:12;101877;;;10.82;78.23
62632;BME280;48703;51.248;-0.546;2023-06-01T03:58:14;101874;;;10.81;78.18
62632;BME280;48703;51.248;-0.546;2023-06-01T04:01:16;101873;;;10.77;78.16
62632;BME280;48703;51.248;-0.546;2023-06-01T04:04:18;101871;;;10.73;78.37
62632;BME280;48703;51.248;-0.546;2023-06-01T04:07:20;101870;;;10.71;78.40
62632;BME280;48703;51.248;-0.546;2023-06-01T04:10:21;101871;;;10.69;78.33
62632;BME280;48703;51.248;-0.546;2023-06-01T04:13:23;101871;;;10.69;78.48
62632;BME280;48703;51.248;-0.546;2023-06-01T04:16:25;101874;;;10.66;78.76
62632;BME280;48703;51.248;-0.546;2023-06-01T04:19:27;101873;;;10.62;79.00
62632;BME280;48703;51.248;-0.546;2023-06-01T04:22:29;101874;;;10.60;79.26
62632;BME280;48703;51.248;-0.546;2023-06-01T04:25:31;101874;;;10.62;79.01
62632;BME280;48703;51.248;-0.546;2023-06-01T04:28:32;101876;;;10.60;79.22
62632;BME280;48703;51.248;-0.546;2023-06-01T04:31:34;101876;;;10.60;79.27
62632;BME280;48703;51.248;-0.546;2023-06-01T04:34:36;101878;;;10.59;79.27
62632;BME280;48703;51.248;-0.546;2023-06-01T04:37:38;101878;;;10.60;79.01
62632;BME280;48703;51.248;-0.546;2023-06-01T04:40:40;101880;;;10.62;78.85
62632;BME280;48703;51.248;-0.546;2023-06-01T04:43:42;101878;;;10.60;79.26
62632;BME280;48703;51.248;-0.546;2023-06-01T04:46:44;101875;;;10.60;78.96
62632;BME280;48703;51.248;-0.546;2023-06-01T04:49:45;101877;;;10.59;79.08
62632;BME280;48703;51.248;-0.546;2023-06-01T04:52:47;101877;;;10.56;78.92
62632;BME280;48703;51.248;-0.546;2023-06-01T04:55:49;101873;;;10.53;79.47
62632;BME280;48703;51.248;-0.546;2023-06-01T04:58:51;101872;;;10.53;79.26
62632;BME280;48703;51.248;-0.546;2023-06-01T05:01:53;101872;;;10.54;79.07
62632;BME280;48703;51.248;-0.546;2023-06-01T05:04:55;101872;;;10.54;79.34
62632;BME280;48703;51.248;-0.546;2023-06-01T05:07:57;101874;;;10.54;79.14
62632;BME280;48703;51.248;-0.546;2023-06-01T05:10:59;101878;;;10.55;79.26
62632;BME280;48703;51.248;-0.546;2023-06-01T05:14:00;101877;;;10.54;79.07
62632;BME280;48703;51.248;-0.546;2023-06-01T05:17:02;101876;;;10.53;79.28
62632;BME280;48703;51.248;-0.546;2023-06-01T05:20:05;101879;;;10.50;79.27
62632;BME280;48703;51.248;-0.546;2023-06-01T05:23:06;101878;;;10.51;79.04
62632;BME280;48703;51.248;-0.546;2023-06-01T05:26:08;101878;;;10.51;79.18
62632;BME280;48703;51.248;-0.546;2023-06-01T05:29:10;101881;;;10.53;79.10
62632;BME280;48703;51.248;-0.546;2023-06-01T05:32:12;101883;;;10.53;78.91
62632;BME280;48703;51.248;-0.546;2023-06-01T05:35:14;101889;;;10.50;78.94
62632;BME280;48703;51.248;-0.546;2023-06-01T05:38:15;101889;;;10.49;79.02
62632;BME280;48703;51.248;-0.546;2023-06-01T05:41:17;101889;;;10.50;79.12
62632;BME280;48703;51.248;-0.546;2023-06-01T05:44:19;101887;;;10.50;79.27
62632;BME280;48703;51.248;-0.546;2023-06-01T05:47:21;101882;;;10.52;79.16
62632;BME280;48703;51.248;-0.546;2023-06-01T05:50:23;101886;;;10.53;79.14
62632;BME280;48703;51.248;-0.546;2023-06-01T05:53:25;101889;;;10.54;79.20
62632;BME280;48703;51.248;-0.546;2023-06-01T05:56:26;101889;;;10.51;79.16
62632;BME280;48703;51.248;-0.546;2023-06-01T05:59:28;101887;;;10.52;78.84
62632;BME280;48703;51.248;-0.546;2023-06-01T06:02:30;101887;;;10.54;79.17
62632;BME280;48703;51.248;-0.546;2023-06-01T06:05:32;101889;;;10.54;79.11
62632;BME280;48703;51.248;-0.546;2023-06-01T06:08:34;101887;;;10.55;79.17
62632;BME280;48703;51.248;-0.546;2023-06-01T06:11:36;101889;;;10.57;78.99
62632;BME280;48703;51.248;-0.546;2023-06-01T06:14:38;101887;;;10.58;79.26
62632;BME280;48703;51.248;-0.546;2023-06-01T06:17:40;101887;;;10.60;79.14
62632;BME280;48703;51.248;-0.546;2023-06-01T06:20:41;101884;;;10.60;79.16
62632;BME280;48703;51.248;-0.546;2023-06-01T06:23:43;101880;;;10.60;79.20
62632;BME280;48703;51.248;-0.546;2023-06-01T06:26:45;101878;;;10.63;79.31
62632;BME280;48703;51.248;-0.546;2023-06-01T06:29:47;101879;;;10.68;79.23
62632;BME280;48703;51.248;-0.546;2023-06-01T06:32:49;101877;;;10.70;79.00
62632;BME280;48703;51.248;-0.546;2023-06-01T06:35:51;101875;;;10.74;79.23
62632;BME280;48703;51.248;-0.546;2023-06-01T06:38:53;101878;;;10.77;79.01
62632;BME280;48703;51.248;-0.546;2023-06-01T06:41:54;101881;;;10.81;79.07
62632;BME280;48703;51.248;-0.546;2023-06-01T06:44:56;101886;;;10.84;79.27
62632;BME280;48703;51.248;-0.546;2023-06-01T06:47:58;101886;;;10.88;79.50
62632;BME280;48703;51.248;-0.546;2023-06-01T06:51:01;101882;;;10.93;78.68
62632;BME280;48703;51.248;-0.546;2023-06-01T06:54:02;101880;;;10.97;78.56
62632;BME280;48703;51.248;-0.546;2023-06-01T06:57:04;101881;;;11.01;78.17
62632;BME280;48703;51.248;-0.546;2023-06-01T07:00:07;101881;;;11.02;77.53
62632;BME280;48703;51.248;-0.546;2023-06-01T07:03:08;101879;;;11.01;77.31
62632;BME280;48703;51.248;-0.546;2023-06-01T07:06:09;101878;;;11.03;77.33
62632;BME280;48703;51.248;-0.546;2023-06-01T07:09:11;101877;;;11.00;77.23
62632;BME280;48703;51.248;-0.546;2023-06-01T07:12:13;101877;;;11.02;77.29
62632;BME280;48703;51.248;-0.546;2023-06-01T07:15:15;101881;;;11.08;77.54
62632;BME280;48703;51.248;-0.546;2023-06-01T07:18:17;101882;;;11.12;77.49
62632;BME280;48703;51.248;-0.546;2023-06-01T07:21:19;101884;;;11.18;77.29
62632;BME280;48703;51.248;-0.546;2023-06-01T07:24:21;101887;;;11.24;77.15
62632;BME280;48703;51.248;-0.546;2023-06-01T07:27:22;101888;;;11.27;76.94
62632;BME280;48703;51.248;-0.546;2023-06-01T07:30:24;101890;;;11.34;77.25
62632;BME280;48703;51.248;-0.546;2023-06-01T07:33:26;101891;;;11.40;76.22
62632;BME280;48703;51.248;-0.546;2023-06-01T07:36:28;101892;;;11.36;75.90
62632;BME280;48703;51.248;-0.546;2023-06-01T07:39:30;101890;;;11.36;76.02
62632;BME280;48703;51.248;-0.546;2023-06-01T07:42:32;101890;;;11.37;75.99
62632;BME280;48703;51.248;-0.546;2023-06-01T07:45:34;101893;;;11.39;76.17
62632;BME280;48703;51.248;-0.546;2023-06-01T07:48:36;101894;;;11.44;76.27
62632;BME280;48703;51.248;-0.546;2023-06-01T07:51:37;101897;;;11.49;76.48
62632;BME280;48703;51.248;-0.546;2023-06-01T07:54:39;101898;;;11.52;75.99
62632;BME280;48703;51.248;-0.546;2023-06-01T07:57:41;101897;;;11.55;75.74
62632;BME280;48703;51.248;-0.546;2023-06-01T08:00:43;101893;;;11.57;75.67
62632;BME280;48703;51.248;-0.546;2023-06-01T08:03:45;101893;;;11.61;76.34
62632;BME280;48703;51.248;-0.546;2023-06-01T08:06:47;101893;;;11.64;75.78
62632;BME280;48703;51.248;-0.546;2023-06-01T08:09:49;101891;;;11.68;75.75
62632;BME280;48703;51.248;-0.546;2023-06-01T08:12:51;101894;;;11.76;75.94
62632;BME280;48703;51.248;-0.546;2023-06-01T08:15:52;101892;;;11.85;75.97
62632;BME280;48703;51.248;-0.546;2023-06-01T08:18:54;101895;;;11.90;75.29
62632;BME280;48703;51.248;-0.546;2023-06-01T08:21:56;101904;;;11.96;75.20
62632;BME280;48703;51.248;-0.546;2023-06-01T08:24:58;101908;;;12.00;74.71
62632;BME280;48703;51.248;-0.546;2023-06-01T08:28:00;101906;;;12.00;73.84
62632;BME280;48703;51.248;-0.546;2023-06-01T08:31:02;101911;;;12.04;74.19
62632;BME280;48703;51.248;-0.546;2023-06-01T08:34:04;101909;;;12.07;74.10
62632;BME280;48703;51.248;-0.546;2023-06-01T08:37:06;101909;;;12.12;73.91
62632;BME280;48703;51.248;-0.546;2023-06-01T08:40:07;101908;;;12.13;74.29
62632;BME280;48703;51.248;-0.546;2023-06-01T08:43:12;101903;;;12.21;74.20
62632;BME280;48703;51.248;-0.546;2023-06-01T08:46:11;101905;;;12.29;74.17
62632;BME280;48703;51.248;-0.546;2023-06-01T08:49:13;101906;;;12.32;73.52
62632;BME280;48703;51.248;-0.546;2023-06-01T08:52:17;101903;;;12.38;74.04
62632;BME280;48703;51.248;-0.546;2023-06-01T08:55:17;101899;;;12.46;73.80
62632;BME280;48703;51.248;-0.546;2023-06-01T08:58:18;101899;;;12.53;73.50
62632;BME280;48703;51.248;-0.546;2023-06-01T09:01:20;101898;;;12.58;73.00
62632;BME280;48703;51.248;-0.546;2023-06-01T09:04:22;101892;;;12.65;72.72
62632;BME280;48703;51.248;-0.546;2023-06-01T09:07:24;101891;;;12.75;72.97
62632;BME280;48703;51.248;-0.546;2023-06-01T09:10:26;101892;;;12.84;72.29
62632;BME280;48703;51.248;-0.546;2023-06-01T09:13:31;101894;;;12.90;72.33
62632;BME280;48703;51.248;-0.546;2023-06-01T09:16:35;101892;;;12.93;71.32
62632;BME280;48703;51.248;-0.546;2023-06-01T09:19:40;101895;;;12.95;71.19
62632;BME280;48703;51.248;-0.546;2023-06-01T09:22:41;101897;;;13.01;71.30
62632;BME280;48703;51.248;-0.546;2023-06-01T09:25:35;101895;;;13.09;71.31
62632;BME280;48703;51.248;-0.546;2023-06-01T09:28:53;101895;;;13.16;70.94
62632;BME280;48703;51.248;-0.546;2023-06-01T09:31:39;101891;;;13.26;70.58
62632;BME280;48703;51.248;-0.546;2023-06-01T09:34:43;101891;;;13.33;70.32
62632;BME280;48703;51.248;-0.546;2023-06-01T09:37:53;101886;;;13.39;70.16
62632;BME280;48703;51.248;-0.546;2023-06-01T09:40:55;101887;;;13.45;70.14
62632;BME280;48703;51.248;-0.546;2023-06-01T09:43:46;101889;;;13.50;68.62
62632;BME280;48703;51.248;-0.546;2023-06-01T09:46:49;101890;;;13.48;68.38
62632;BME280;48703;51.248;-0.546;2023-06-01T09:49:50;101893;;;13.49;68.98
62632;BME280;48703;51.248;-0.546;2023-06-01T09:52:57;101891;;;13.52;68.43
62632;BME280;48703;51.248;-0.546;2023-06-01T09:55:57;101894;;;13.53;68.07
62632;BME280;48703;51.248;-0.546;2023-06-01T09:58:56;101889;;;13.56;68.31
62632;BME280;48703;51.248;-0.546;2023-06-01T10:01:58;101887;;;13.63;68.76
62632;BME280;48703;51.248;-0.546;2023-06-01T10:04:59;101890;;;13.74;69.09
62632;BME280;48703;51.248;-0.546;2023-06-01T10:08:01;101885;;;13.82;68.42
62632;BME280;48703;51.248;-0.546;2023-06-01T10:11:03;101885;;;13.91;68.73
62632;BME280;48703;51.248;-0.546;2023-06-01T10:14:05;101887;;;13.98;68.08
62632;BME280;48703;51.248;-0.546;2023-06-01T10:17:07;101888;;;14.04;67.17
62632;BME280;48703;51.248;-0.546;2023-06-01T10:20:09;101894;;;14.01;66.98
62632;BME280;48703;51.248;-0.546;2023-06-01T10:23:11;101895;;;14.09;66.93
62632;BME280;48703;51.248;-0.546;2023-06-01T10:26:13;101895;;;14.21;66.95
62632;BME280;48703;51.248;-0.546;2023-06-01T10:29:15;101900;;;14.27;67.28
62632;BME280;48703;51.248;-0.546;2023-06-01T10:32:49;101897;;;14.35;67.41
62632;BME280;48703;51.248;-0.546;2023-06-01T10:36:23;101897;;;14.45;67.20
62632;BME280;48703;51.248;-0.546;2023-06-01T10:38:21;101894;;;14.53;66.86
62632;BME280;48703;51.248;-0.546;2023-06-01T10:41:25;101887;;;14.60;66.20
62632;BME280;48703;51.248;-0.546;2023-06-01T10:44:56;101887;;;14.70;66.49
62632;BME280;48703;51.248;-0.546;2023-06-01T10:47:44;101883;;;14.84;66.40
62632;BME280;48703;51.248;-0.546;2023-06-01T10:50:27;101884;;;15.01;65.99
62632;BME280;48703;51.248;-0.546;2023-06-01T10:53:30;101881;;;15.19;65.06
62632;BME280;48703;51.248;-0.546;2023-06-01T10:56:31;101888;;;15.27;63.84
62632;BME280;48703;51.248;-0.546;2023-06-01T10:59:33;101885;;;15.35;63.79
62632;BME280;48703;51.248;-0.546;2023-06-01T11:02:41;101891;;;15.39;63.24
62632;BME280;48703;51.248;-0.546;2023-06-01T11:05:38;101887;;;15.37;63.65
62632;BME280;48703;51.248;-0.546;2023-06-01T11:08:55;101883;;;15.40;63.67
62632;BME280;48703;51.248;-0.546;2023-06-01T11:11:09;101879;;;15.38;63.12
62632;BME280;48703;51.248;-0.546;2023-06-01T11:13:43;101883;;;15.38;62.66
62632;BME280;48703;51.248;-0.546;2023-06-01T11:16:44;101879;;;15.31;62.64
62632;BME280;48703;51.248;-0.546;2023-06-01T11:19:45;101880;;;15.29;63.30
62632;BME280;48703;51.248;-0.546;2023-06-01T11:22:47;101879;;;15.32;62.99
62632;BME280;48703;51.248;-0.546;2023-06-01T11:25:49;101874;;;15.37;62.84
62632;BME280;48703;51.248;-0.546;2023-06-01T11:28:52;101872;;;15.48;63.51
62632;BME280;48703;51.248;-0.546;2023-06-01T11:31:53;101869;;;15.49;62.58
62632;BME280;48703;51.248;-0.546;2023-06-01T11:34:55;101868;;;15.44;62.35
62632;BME280;48703;51.248;-0.546;2023-06-01T11:37:57;101863;;;15.46;62.07
62632;BME280;48703;51.248;-0.546;2023-06-01T11:40:59;101857;;;15.57;63.13
62632;BME280;48703;51.248;-0.546;2023-06-01T11:44:00;101860;;;15.73;62.67
62632;BME280;48703;51.248;-0.546;2023-06-01T11:47:03;101854;;;15.77;62.03
62632;BME280;48703;51.248;-0.546;2023-06-01T11:50:05;101852;;;15.82;62.44
62632;BME280;48703;51.248;-0.546;2023-06-01T11:53:06;101858;;;15.92;61.94
62632;BME280;48703;51.248;-0.546;2023-06-01T11:56:08;101857;;;15.93;61.40
62632;BME280;48703;51.248;-0.546;2023-06-01T11:59:10;101852;;;15.85;61.53
62632;BME280;48703;51.248;-0.546;2023-06-01T12:02:16;101858;;;15.77;62.17
62632;BME280;48703;51.248;-0.546;2023-06-01T12:05:13;101851;;;15.74;61.24
62632;BME280;48703;51.248;-0.546;2023-06-01T12:08:16;101856;;;15.71;61.34
62632;BME280;48703;51.248;-0.546;2023-06-01T12:11:18;101852;;;15.71;61.48
62632;BME280;48703;51.248;-0.546;2023-06-01T12:14:19;101848;;;15.71;61.08
62632;BME280;48703;51.248;-0.546;2023-06-01T12:17:21;101846;;;15.70;61.50
62632;BME280;48703;51.248;-0.546;2023-06-01T12:20:27;101841;;;15.76;61.65
62632;BME280;48703;51.248;-0.546;2023-06-01T12:23:25;101841;;;15.78;61.79
62632;BME280;48703;51.248;-0.546;2023-06-01T12:26:34;101850;;;15.81;61.51
62632;BME280;48703;51.248;-0.546;2023-06-01T12:29:36;101844;;;15.84;61.46
62632;BME280;48703;51.248;-0.546;2023-06-01T12:32:37;101844;;;15.85;61.89
62632;BME280;48703;51.248;-0.546;2023-06-01T12:35:32;101847;;;15.86;61.65
62632;BME280;48703;51.248;-0.546;2023-06-01T12:38:34;101849;;;15.87;61.92
62632;BME280;48703;51.248;-0.546;2023-06-01T12:41:36;101846;;;15.85;60.32
62632;BME280;48703;51.248;-0.546;2023-06-01T12:44:38;101840;;;15.83;60.99
62632;BME280;48703;51.248;-0.546;2023-06-01T12:47:40;101839;;;15.87;61.37
62632;BME280;48703;51.248;-0.546;2023-06-01T12:50:42;101837;;;15.93;61.68
62632;BME280;48703;51.248;-0.546;2023-06-01T12:53:43;101834;;;16.00;61.34
62632;BME280;48703;51.248;-0.546;2023-06-01T12:56:47;101828;;;16.01;61.23
62632;BME280;48703;51.248;-0.546;2023-06-01T12:59:47;101826;;;16.06;61.43
62632;BME280;48703;51.248;-0.546;2023-06-01T13:02:49;101825;;;16.13;61.95
62632;BME280;48703;51.248;-0.546;2023-06-01T13:05:51;101818;;;16.16;61.91
62632;BME280;48703;51.248;-0.546;2023-06-01T13:08:53;101818;;;16.20;61.90
62632;BME280;48703;51.248;-0.546;2023-06-01T13:11:55;101822;;;16.24;61.50
62632;BME280;48703;51.248;-0.546;2023-06-01T13:14:56;101817;;;16.26;61.16
62632;BME280;48703;51.248;-0.546;2023-06-01T13:17:58;101811;;;16.27;60.88
62632;BME280;48703;51.248;-0.546;2023-06-01T13:21:00;101811;;;16.26;60.50
62632;BME280;48703;51.248;-0.546;2023-06-01T13:24:02;101806;;;16.29;60.94
62632;BME280;48703;51.248;-0.546;2023-06-01T13:27:04;101813;;;16.32;60.68
62632;BME280;48703;51.248;-0.546;2023-06-01T13:30:06;101807;;;16.36;61.15
62632;BME280;48703;51.248;-0.546;2023-06-01T13:33:08;101809;;;16.40;60.38
62632;BME280;48703;51.248;-0.546;2023-06-01T13:36:09;101803;;;16.40;59.83
62632;BME280;48703;51.248;-0.546;2023-06-01T13:39:11;101800;;;16.46;60.68
62632;BME280;48703;51.248;-0.546;2023-06-01T13:42:13;101809;;;16.54;59.92
62632;BME280;48703;51.248;-0.546;2023-06-01T13:45:15;101802;;;16.58;59.81
62632;BME280;48703;51.248;-0.546;2023-06-01T13:48:17;101798;;;16.65;59.83
62632;BME280;48703;51.248;-0.546;2023-06-01T13:51:19;101796;;;16.75;59.03
62632;BME280;48703;51.248;-0.546;2023-06-01T13:54:20;101790;;;16.82;58.96
62632;BME280;48703;51.248;-0.546;2023-06-01T13:57:22;101788;;;16.89;58.31
62632;BME280;48703;51.248;-0.546;2023-06-01T14:00:24;101789;;;16.98;59.43
62632;BME280;48703;51.248;-0.546;2023-06-01T14:03:26;101790;;;17.12;58.94
62632;BME280;48703;51.248;-0.546;2023-06-01T14:06:28;101787;;;17.19;57.57
62632;BME280;48703;51.248;-0.546;2023-06-01T14:09:30;101784;;;17.28;57.97
62632;BME280;48703;51.248;-0.546;2023-06-01T14:12:32;101776;;;17.29;57.65
62632;BME280;48703;51.248;-0.546;2023-06-01T14:15:34;101770;;;17.32;57.56
62632;BME280;48703;51.248;-0.546;2023-06-01T14:18:35;101768;;;17.41;57.89
62632;BME280;48703;51.248;-0.546;2023-06-01T14:21:37;101764;;;17.54;58.23
62632;BME280;48703;51.248;-0.546;2023-06-01T14:24:39;101763;;;17.64;56.78
62632;BME280;48703;51.248;-0.546;2023-06-01T14:27:41;101762;;;17.70;56.62
62632;BME280;48703;51.248;-0.546;2023-06-01T14:30:43;101761;;;17.79;56.57
62632;BME280;48703;51.248;-0.546;2023-06-01T14:33:45;101752;;;17.86;56.13
62632;BME280;48703;51.248;-0.546;2023-06-01T14:36:47;101750;;;17.95;55.32
62632;BME280;48703;51.248;-0.546;2023-06-01T14:39:48;101746;;;18.02;55.45
62632;BME280;48703;51.248;-0.546;2023-06-01T14:42:50;101743;;;18.18;55.22
62632;BME280;48703;51.248;-0.546;2023-06-01T14:45:52;101738;;;18.28;54.30
62632;BME280;48703;51.248;-0.546;2023-06-01T14:48:54;101735;;;18.38;53.41
62632;BME280;48703;51.248;-0.546;2023-06-01T14:51:56;101740;;;18.44;52.77
62632;BME280;48703;51.248;-0.546;2023-06-01T14:54:58;101737;;;18.49;52.82
62632;BME280;48703;51.248;-0.546;2023-06-01T14:58:00;101732;;;18.55;53.79
62632;BME280;48703;51.248;-0.546;2023-06-01T15:01:02;101732;;;18.69;53.61
62632;BME280;48703;51.248;-0.546;2023-06-01T15:04:03;101726;;;18.79;52.84
62632;BME280;48703;51.248;-0.546;2023-06-01T15:07:05;101721;;;18.92;53.74
62632;BME280;48703;51.248;-0.546;2023-06-01T15:10:07;101722;;;19.03;53.40
62632;BME280;48703;51.248;-0.546;2023-06-01T15:13:09;101719;;;19.16;53.03
62632;BME280;48703;51.248;-0.546;2023-06-01T15:16:11;101717;;;19.19;52.35
62632;BME280;48703;51.248;-0.546;2023-06-01T15:19:13;101715;;;19.20;52.25
62632;BME280;48703;51.248;-0.546;2023-06-01T15:22:15;101712;;;19.34;52.36
62632;BME280;48703;51.248;-0.546;2023-06-01T15:25:16;101710;;;19.49;52.12
62632;BME280;48703;51.248;-0.546;2023-06-01T15:28:18;101708;;;19.53;51.04
62632;BME280;48703;51.248;-0.546;2023-06-01T15:31:21;101709;;;19.58;51.60
62632;BME280;48703;51.248;-0.546;2023-06-01T15:34:22;101704;;;19.78;51.77
62632;BME280;48703;51.248;-0.546;2023-06-01T15:37:24;101703;;;19.85;50.55
62632;BME280;48703;51.248;-0.546;2023-06-01T15:40:26;101707;;;19.89;50.38
62632;BME280;48703;51.248;-0.546;2023-06-01T15:43:28;101707;;;19.96;49.46
62632;BME280;48703;51.248;-0.546;2023-06-01T15:46:29;101705;;;19.98;50.08
62632;BME280;48703;51.248;-0.546;2023-06-01T15:49:31;101701;;;20.10;50.47
62632;BME280;48703;51.248;-0.546;2023-06-01T15:52:33;101690;;;20.19;50.68
62632;BME280;48703;51.248;-0.546;2023-06-01T15:55:35;101688;;;20.33;49.93
62632;BME280;48703;51.248;-0.546;2023-06-01T15:58:37;101688;;;20.39;48.33
62632;BME280;48703;51.248;-0.546;2023-06-01T16:01:39;101681;;;20.34;48.71
62632;BME280;48703;51.248;-0.546;2023-06-01T16:04:41;101681;;;20.40;49.86
62632;BME280;48703;51.248;-0.546;2023-06-01T16:07:42;101675;;;20.53;49.12
62632;BME280;48703;51.248;-0.546;2023-06-01T16:10:44;101672;;;20.56;49.02
62632;BME280;48703;51.248;-0.546;2023-06-01T16:13:46;101670;;;20.56;49.20